Informes METAR cercanos

 

LEBZ - Talavera Ab/Bada, Spain
Distancia desde la estación: ONO 43km
Actualización: 22/11/2019 21:00
Nuboso(6/8)
Nuboso(6/8)
 Viento del OSO
Viento: OSO 28 km/h
Temperatura: 14°C
Rocío: 10°C
Humedad: 77%
Barómetro: 998 hPa
Nubes: Nuboso , 6/8
Visibilidad: 10 km
Detalle nubosidad: Intervalos nubosos , 4/8 914 m
Nuboso , 6/8 1372 m
2019/11/22 20:00 LEBZ 222000Z 24015KT 9999 SCT030 BKN045 14/10 Q0998